RYR2187 OPIS-OPSD
Flight info
| Callsign | RYR2187 |
|---|---|
| Flight time | 0h 42m |
| Altitude | 31000 |
| Route | BOBAM DCT KAGLO J186 KAPMI DCT BUNGI DCT BIREB |
| Aircraft | B738/M-SDE2E3FGHIRWXY/LB1 |
Departure
| Time | 2026-04-28 01:10 |
|---|---|
| Airport | Islamabad International Airport (OPIS) |
Arrival
| Time | 2026-04-28 01:53 |
|---|---|
| Airport | Skardu International Airport (OPSD) |
| Time | Latitude | Longitude | Altitude | Speed | Heading |
|---|---|---|---|---|---|
| 2026-04-28 00:52 | 33.55459 | 72.83354 | 1785 ft | 0 kts | 10° |
| 2026-04-28 01:03 | 33.55452 | 72.83353 | 1785 ft | 2 kts | 10° |
| 2026-04-28 01:03 | 33.55437 | 72.83350 | 1783 ft | 2 kts | 10° |
| 2026-04-28 01:03 | 33.55422 | 72.83347 | 1782 ft | 2 kts | 10° |
| 2026-04-28 01:03 | 33.55407 | 72.83343 | 1781 ft | 2 kts | 10° |
| 2026-04-28 01:04 | 33.55392 | 72.83340 | 1779 ft | 2 kts | 9° |
| 2026-04-28 01:04 | 33.55378 | 72.83337 | 1778 ft | 2 kts | 10° |
| 2026-04-28 01:04 | 33.55363 | 72.83334 | 1778 ft | 1 kts | 29° |
| 2026-04-28 01:04 | 33.55356 | 72.83322 | 1777 ft | 1 kts | 89° |
| 2026-04-28 01:05 | 33.55357 | 72.83315 | 1777 ft | 0 kts | 105° |
| 2026-04-28 01:05 | 33.55358 | 72.83310 | 1777 ft | 0 kts | 101° |
| 2026-04-28 01:06 | 33.55354 | 72.83332 | 1777 ft | 4 kts | 101° |
| 2026-04-28 01:07 | 33.55347 | 72.83373 | 1779 ft | 10 kts | 100° |
| 2026-04-28 01:07 | 33.55331 | 72.83491 | 1781 ft | 15 kts | 103° |
| 2026-04-28 01:07 | 33.55259 | 72.83534 | 1777 ft | 15 kts | 191° |
| 2026-04-28 01:07 | 33.55113 | 72.83501 | 1756 ft | 23 kts | 188° |
| 2026-04-28 01:08 | 33.55028 | 72.83635 | 1751 ft | 23 kts | 101° |
| 2026-04-28 01:08 | 33.54997 | 72.83834 | 1750 ft | 24 kts | 101° |
| 2026-04-28 01:08 | 33.54965 | 72.84036 | 1753 ft | 25 kts | 100° |
| 2026-04-28 01:08 | 33.54930 | 72.84261 | 1755 ft | 26 kts | 100° |
| 2026-04-28 01:09 | 33.54899 | 72.84448 | 1759 ft | 17 kts | 101° |
| 2026-04-28 01:09 | 33.54847 | 72.84543 | 1756 ft | 18 kts | 179° |
| 2026-04-28 01:09 | 33.54719 | 72.84511 | 1747 ft | 15 kts | 222° |
| 2026-04-28 01:09 | 33.54709 | 72.84455 | 1746 ft | 0 kts | 278° |
| 2026-04-28 01:10 | 33.54719 | 72.84380 | 1746 ft | 34 kts | 281° |
| 2026-04-28 01:10 | 33.54819 | 72.83724 | 1735 ft | 122 kts | 281° |
| 2026-04-28 01:10 | 33.55024 | 72.82461 | 1906 ft | 175 kts | 281° |
| 2026-04-28 01:10 | 33.55264 | 72.81095 | 2831 ft | 175 kts | 283° |
| 2026-04-28 01:11 | 33.55501 | 72.79676 | 3654 ft | 182 kts | 283° |
| 2026-04-28 01:11 | 33.55735 | 72.78130 | 4204 ft | 201 kts | 281° |
| 2026-04-28 01:11 | 33.55998 | 72.76398 | 4839 ft | 220 kts | 282° |
| 2026-04-28 01:11 | 33.56290 | 72.74537 | 5453 ft | 238 kts | 281° |
| 2026-04-28 01:12 | 33.56372 | 72.72481 | 6042 ft | 260 kts | 258° |
| 2026-04-28 01:12 | 33.55548 | 72.70537 | 6724 ft | 274 kts | 226° |
| 2026-04-28 01:12 | 33.53951 | 72.69303 | 7480 ft | 281 kts | 197° |
| 2026-04-28 01:12 | 33.52042 | 72.69048 | 8429 ft | 281 kts | 175° |
| 2026-04-28 01:13 | 33.50155 | 72.69669 | 9327 ft | 286 kts | 150° |
| 2026-04-28 01:13 | 33.48156 | 72.73676 | 10843 ft | 312 kts | 94° |
| 2026-04-28 01:13 | 33.48416 | 72.76316 | 11452 ft | 329 kts | 78° |
| 2026-04-28 01:14 | 33.48901 | 72.79021 | 12014 ft | 343 kts | 84° |
| 2026-04-28 01:14 | 33.49039 | 72.81933 | 12576 ft | 358 kts | 91° |
| 2026-04-28 01:14 | 33.48935 | 72.84965 | 13141 ft | 373 kts | 95° |
| 2026-04-28 01:14 | 33.48737 | 72.88084 | 13912 ft | 381 kts | 96° |
| 2026-04-28 01:15 | 33.48524 | 72.91248 | 14767 ft | 387 kts | 95° |
| 2026-04-28 01:15 | 33.48515 | 72.94498 | 15658 ft | 392 kts | 85° |
| 2026-04-28 01:15 | 33.49094 | 72.97650 | 16478 ft | 397 kts | 71° |
| 2026-04-28 01:15 | 33.50183 | 73.00712 | 17334 ft | 402 kts | 64° |
| 2026-04-28 01:16 | 33.51447 | 73.03691 | 18102 ft | 408 kts | 62° |
| 2026-04-28 01:16 | 33.52935 | 73.06590 | 18838 ft | 414 kts | 52° |
| 2026-04-28 01:16 | 33.54945 | 73.09113 | 19594 ft | 419 kts | 40° |
| 2026-04-28 01:16 | 33.57309 | 73.11178 | 20272 ft | 426 kts | 30° |
| 2026-04-28 01:17 | 33.59976 | 73.12753 | 20968 ft | 431 kts | 20° |
| 2026-04-28 01:17 | 33.62832 | 73.13772 | 21649 ft | 434 kts | 10° |
| 2026-04-28 01:17 | 33.65831 | 73.14208 | 22393 ft | 436 kts | 0° |
| 2026-04-28 01:17 | 33.68883 | 73.14068 | 23080 ft | 439 kts | 352° |
| 2026-04-28 01:18 | 33.71919 | 73.13586 | 23713 ft | 444 kts | 348° |
| 2026-04-28 01:18 | 33.74970 | 73.13025 | 24416 ft | 449 kts | 349° |
| 2026-04-28 01:18 | 33.78082 | 73.12505 | 25068 ft | 454 kts | 350° |
| 2026-04-28 01:18 | 33.81234 | 73.12078 | 25757 ft | 458 kts | 352° |
| 2026-04-28 01:19 | 33.84403 | 73.11742 | 26420 ft | 462 kts | 352° |
| 2026-04-28 01:19 | 33.87649 | 73.11475 | 27025 ft | 467 kts | 353° |
| 2026-04-28 01:19 | 33.90908 | 73.11260 | 27547 ft | 474 kts | 354° |
| 2026-04-28 01:19 | 33.94199 | 73.11081 | 28228 ft | 476 kts | 354° |
| 2026-04-28 01:20 | 33.97494 | 73.10926 | 29183 ft | 471 kts | 355° |
| 2026-04-28 01:20 | 34.00740 | 73.10786 | 30143 ft | 466 kts | 354° |
| 2026-04-28 01:20 | 34.03949 | 73.10649 | 30733 ft | 466 kts | 354° |
| 2026-04-28 01:20 | 34.07246 | 73.10508 | 30928 ft | 467 kts | 354° |
| 2026-04-28 01:21 | 34.13701 | 73.10236 | 30930 ft | 459 kts | 354° |
| 2026-04-28 01:21 | 34.20108 | 73.09963 | 30959 ft | 458 kts | 354° |
| 2026-04-28 01:22 | 34.26495 | 73.09683 | 30941 ft | 459 kts | 354° |
| 2026-04-28 01:22 | 34.32859 | 73.09405 | 30940 ft | 458 kts | 354° |
| 2026-04-28 01:23 | 34.39250 | 73.09119 | 30943 ft | 458 kts | 354° |
| 2026-04-28 01:23 | 34.45627 | 73.08833 | 31001 ft | 458 kts | 354° |
| 2026-04-28 01:24 | 34.52024 | 73.09187 | 31008 ft | 465 kts | 8° |
| 2026-04-28 01:24 | 34.55087 | 73.10339 | 31018 ft | 469 kts | 21° |
| 2026-04-28 01:24 | 34.57948 | 73.12232 | 31049 ft | 471 kts | 32° |
| 2026-04-28 01:25 | 34.62889 | 73.17468 | 31139 ft | 474 kts | 48° |
| 2026-04-28 01:25 | 34.66692 | 73.24016 | 31255 ft | 474 kts | 58° |
| 2026-04-28 01:26 | 34.70057 | 73.30954 | 31298 ft | 473 kts | 59° |
| 2026-04-28 01:26 | 34.73333 | 73.37830 | 31333 ft | 473 kts | 59° |
| 2026-04-28 01:27 | 34.76709 | 73.44754 | 31373 ft | 474 kts | 57° |
| 2026-04-28 01:27 | 34.80794 | 73.50904 | 31428 ft | 471 kts | 41° |
| 2026-04-28 01:28 | 34.85862 | 73.55924 | 31481 ft | 468 kts | 34° |
| 2026-04-28 01:28 | 34.91118 | 73.60631 | 31522 ft | 468 kts | 33° |
| 2026-04-28 01:29 | 34.96360 | 73.65343 | 31508 ft | 467 kts | 35° |
| 2026-04-28 01:29 | 35.01535 | 73.70108 | 31541 ft | 469 kts | 35° |
| 2026-04-28 01:30 | 35.06721 | 73.74963 | 31558 ft | 466 kts | 36° |
| 2026-04-28 01:30 | 35.11846 | 73.79804 | 31562 ft | 468 kts | 36° |
| 2026-04-28 01:31 | 35.16990 | 73.84686 | 31592 ft | 466 kts | 36° |
| 2026-04-28 01:31 | 35.22109 | 73.89552 | 31585 ft | 466 kts | 36° |
| 2026-04-28 01:32 | 35.27237 | 73.94434 | 31570 ft | 467 kts | 36° |
| 2026-04-28 01:32 | 35.32350 | 73.99307 | 31580 ft | 467 kts | 36° |
| 2026-04-28 01:33 | 35.37450 | 74.04178 | 31556 ft | 464 kts | 36° |
| 2026-04-28 01:33 | 35.39876 | 74.06773 | 31248 ft | 458 kts | 43° |
| 2026-04-28 01:33 | 35.41942 | 74.09666 | 31073 ft | 446 kts | 52° |
| 2026-04-28 01:34 | 35.43644 | 74.12798 | 30734 ft | 438 kts | 58° |
| 2026-04-28 01:34 | 35.45127 | 74.15997 | 30286 ft | 433 kts | 61° |
| 2026-04-28 01:34 | 35.46520 | 74.19252 | 29804 ft | 428 kts | 62° |
| 2026-04-28 01:34 | 35.47852 | 74.22479 | 29325 ft | 423 kts | 63° |
| 2026-04-28 01:35 | 35.49146 | 74.25652 | 28848 ft | 418 kts | 63° |
| 2026-04-28 01:35 | 35.50434 | 74.28811 | 28362 ft | 413 kts | 63° |
| 2026-04-28 01:35 | 35.51725 | 74.31960 | 27888 ft | 409 kts | 63° |
| 2026-04-28 01:35 | 35.52996 | 74.35043 | 27430 ft | 404 kts | 63° |
| 2026-04-28 01:36 | 35.54247 | 74.38065 | 26968 ft | 400 kts | 63° |
| 2026-04-28 01:36 | 35.55530 | 74.41150 | 26489 ft | 409 kts | 63° |
| 2026-04-28 01:36 | 35.56831 | 74.44273 | 25981 ft | 419 kts | 63° |
| 2026-04-28 01:36 | 35.58159 | 74.47456 | 25469 ft | 415 kts | 63° |
| 2026-04-28 01:37 | 35.59460 | 74.50575 | 24974 ft | 409 kts | 63° |
| 2026-04-28 01:37 | 35.60741 | 74.53646 | 24498 ft | 404 kts | 63° |
| 2026-04-28 01:37 | 35.61943 | 74.56738 | 23965 ft | 399 kts | 68° |
| 2026-04-28 01:37 | 35.62782 | 74.59940 | 23470 ft | 392 kts | 78° |
| 2026-04-28 01:38 | 35.63083 | 74.63211 | 22932 ft | 386 kts | 90° |
| 2026-04-28 01:38 | 35.63018 | 74.66486 | 22412 ft | 381 kts | 95° |
| 2026-04-28 01:38 | 35.62826 | 74.69705 | 21935 ft | 375 kts | 96° |
| 2026-04-28 01:38 | 35.62593 | 74.72875 | 21437 ft | 370 kts | 97° |
| 2026-04-28 01:39 | 35.62355 | 74.75969 | 20948 ft | 366 kts | 97° |
| 2026-04-28 01:39 | 35.62118 | 74.79079 | 20506 ft | 360 kts | 97° |
| 2026-04-28 01:39 | 35.61900 | 74.82058 | 20123 ft | 342 kts | 96° |
| 2026-04-28 01:39 | 35.61698 | 74.84899 | 19712 ft | 329 kts | 96° |
| 2026-04-28 01:40 | 35.61506 | 74.87648 | 19298 ft | 319 kts | 96° |
| 2026-04-28 01:40 | 35.61320 | 74.90304 | 18935 ft | 312 kts | 96° |
| 2026-04-28 01:40 | 35.61138 | 74.92901 | 18551 ft | 298 kts | 96° |
| 2026-04-28 01:40 | 35.60967 | 74.95367 | 18135 ft | 285 kts | 96° |
| 2026-04-28 01:41 | 35.60806 | 74.97732 | 17708 ft | 272 kts | 96° |
| 2026-04-28 01:41 | 35.60754 | 74.98498 | 17588 ft | 267 kts | 96° |
| 2026-04-28 01:41 | 35.60340 | 75.04522 | 16637 ft | 227 kts | 96° |
| 2026-04-28 01:42 | 35.60207 | 75.06421 | 16350 ft | 217 kts | 96° |
| 2026-04-28 01:42 | 35.60080 | 75.08250 | 16057 ft | 216 kts | 96° |
| 2026-04-28 01:42 | 35.59954 | 75.10053 | 15770 ft | 208 kts | 96° |
| 2026-04-28 01:42 | 35.59831 | 75.11803 | 15697 ft | 204 kts | 95° |
| 2026-04-28 01:43 | 35.59714 | 75.13482 | 15742 ft | 192 kts | 95° |
| 2026-04-28 01:43 | 35.59597 | 75.15112 | 15702 ft | 194 kts | 96° |
| 2026-04-28 01:43 | 35.59451 | 75.16735 | 15425 ft | 192 kts | 98° |
| 2026-04-28 01:43 | 35.59247 | 75.18355 | 15024 ft | 189 kts | 100° |
| 2026-04-28 01:44 | 35.58973 | 75.19908 | 14605 ft | 189 kts | 105° |
| 2026-04-28 01:44 | 35.58597 | 75.21417 | 14163 ft | 185 kts | 108° |
| 2026-04-28 01:44 | 35.58181 | 75.22900 | 13700 ft | 182 kts | 109° |
| 2026-04-28 01:44 | 35.57872 | 75.24380 | 13502 ft | 180 kts | 96° |
| 2026-04-28 01:45 | 35.57938 | 75.25944 | 13359 ft | 186 kts | 78° |
| 2026-04-28 01:45 | 35.58328 | 75.27431 | 12943 ft | 183 kts | 69° |
| 2026-04-28 01:45 | 35.58817 | 75.28845 | 12559 ft | 182 kts | 64° |
| 2026-04-28 01:45 | 35.59311 | 75.30243 | 12155 ft | 177 kts | 76° |
| 2026-04-28 01:46 | 35.59292 | 75.31770 | 11626 ft | 184 kts | 108° |
| 2026-04-28 01:46 | 35.58561 | 75.33015 | 11024 ft | 185 kts | 139° |
| 2026-04-28 01:46 | 35.57452 | 75.33764 | 10667 ft | 181 kts | 161° |
| 2026-04-28 01:46 | 35.56239 | 75.34084 | 10442 ft | 177 kts | 169° |
| 2026-04-28 01:47 | 35.55001 | 75.34223 | 10554 ft | 183 kts | 180° |
| 2026-04-28 01:47 | 35.53741 | 75.34068 | 10616 ft | 182 kts | 184° |
| 2026-04-28 01:47 | 35.52473 | 75.34152 | 10803 ft | 182 kts | 171° |
| 2026-04-28 01:47 | 35.51202 | 75.34337 | 10841 ft | 184 kts | 175° |
| 2026-04-28 01:48 | 35.49940 | 75.34517 | 10853 ft | 182 kts | 167° |
| 2026-04-28 01:48 | 35.48712 | 75.34811 | 10944 ft | 181 kts | 162° |
| 2026-04-28 01:48 | 35.47589 | 75.35501 | 11002 ft | 180 kts | 140° |
| 2026-04-28 01:48 | 35.46972 | 75.36784 | 10996 ft | 179 kts | 97° |
| 2026-04-28 01:49 | 35.47279 | 75.38295 | 10295 ft | 197 kts | 63° |
| 2026-04-28 01:49 | 35.47593 | 75.39813 | 10006 ft | 174 kts | 91° |
| 2026-04-28 01:49 | 35.47276 | 75.41196 | 9575 ft | 168 kts | 118° |
| 2026-04-28 01:49 | 35.46529 | 75.42303 | 9405 ft | 169 kts | 134° |
| 2026-04-28 01:50 | 35.45680 | 75.43304 | 9532 ft | 170 kts | 135° |
| 2026-04-28 01:50 | 35.44824 | 75.44332 | 9632 ft | 175 kts | 133° |
| 2026-04-28 01:50 | 35.43951 | 75.45400 | 9701 ft | 181 kts | 137° |
| 2026-04-28 01:50 | 35.43012 | 75.46426 | 9689 ft | 181 kts | 138° |
| 2026-04-28 01:51 | 35.41981 | 75.47335 | 9562 ft | 183 kts | 144° |
| 2026-04-28 01:51 | 35.40929 | 75.48209 | 9337 ft | 184 kts | 145° |
| 2026-04-28 01:51 | 35.39870 | 75.49078 | 9090 ft | 182 kts | 145° |
| 2026-04-28 01:51 | 35.38824 | 75.49915 | 8776 ft | 180 kts | 147° |
| 2026-04-28 01:52 | 35.37766 | 75.50738 | 8424 ft | 177 kts | 146° |
| 2026-04-28 01:52 | 35.36738 | 75.51545 | 8053 ft | 176 kts | 145° |
| 2026-04-28 01:52 | 35.35730 | 75.52373 | 7711 ft | 174 kts | 144° |
| 2026-04-28 01:52 | 35.34753 | 75.53148 | 7517 ft | 156 kts | 145° |
| 2026-04-28 01:53 | 35.33964 | 75.53779 | 7533 ft | 102 kts | 145° |
| 2026-04-28 01:53 | 35.33557 | 75.54099 | 7547 ft | 57 kts | 147° |
| 2026-04-28 01:53 | 35.33320 | 75.54289 | 7550 ft | 32 kts | 149° |
| 2026-04-28 01:53 | 35.33186 | 75.54238 | 7550 ft | 1 kts | 229° |
| 2026-04-28 01:54 | 35.33179 | 75.54230 | 7550 ft | 5 kts | 229° |
| 2026-04-28 01:54 | 35.33141 | 75.54166 | 7550 ft | 12 kts | 237° |
| 2026-04-28 01:54 | 35.33116 | 75.54121 | 7551 ft | 2 kts | 223° |
| 2026-04-28 01:55 | 35.33109 | 75.54125 | 7551 ft | 0 kts | 137° |
| 2026-04-28 01:55 | 35.33099 | 75.54132 | 7551 ft | 2 kts | 146° |
| 2026-04-28 01:55 | 35.33085 | 75.54144 | 7551 ft | 4 kts | 147° |
| 2026-04-28 01:55 | 35.33070 | 75.54155 | 7550 ft | 0 kts | 148° |